Simcoe, North Dakota
Current Conditions -  °F | °C
As of 2:54 AM on Monday 24 Nov 2014 (Local Time) from KMOT Reporting Station
Clear Clear  
Wind Chill: -11°   Ceiling: Unl
Heat Index:   Visibility: 10mi
Dew Point:   Wind: 14mph
Humidity: 80%   Direction: 300°WNW
Pressure: 29.78"   Gusts: NA
Location:  48.2524°N, 100.783°W
Report Text: KMOT 240854Z AUTO 30012KT 10SM CLR M14/M17 A2978 RMK AO2 SLP123 T11441172 53006
Loading
Personal Weather Stations






























Interactive Weather Map New forecast layout! Learn more

10-Day Weather Forecast

Advertisements
Track Severe Weather on mobile